Time;durP1;ratioP1;P1;durP2;ratioP2;P2;SDS_P1;SDS_P2;PMS_P1;PMS_P2;Temp;Humidity;BMP_temperature;BMP_pressure;BME280_temperature;BME280_humidity;BME280_pressure;Samples;Min_cycle;Max_cycle;Signal;HPM_P1;HPM_P2
2022/03/05 00:00:58;;;;;;;23.00;21.80;;;17.00;54.80;;;;;;5071327;28;20447;-46
2022/03/05 00:03:25;;;;;;;23.80;22.67;;;17.00;54.80;;;;;;5072048;28;20495;-46
2022/03/05 00:05:52;;;;;;;22.60;21.50;;;17.00;54.80;;;;;;5071995;28;20501;-44
2022/03/05 00:08:19;;;;;;;22.57;21.47;;;17.00;54.90;;;;;;5073211;28;20452;-45
2022/03/05 00:10:45;;;;;;;22.80;21.70;;;16.90;54.80;;;;;;5072136;28;20498;-42
2022/03/05 00:13:12;;;;;;;21.60;20.70;;;16.90;54.90;;;;;;5071955;28;20443;-43
2022/03/05 00:15:39;;;;;;;22.70;21.70;;;16.90;54.90;;;;;;5071947;28;20447;-42
2022/03/05 00:18:07;;;;;;;22.53;21.53;;;16.90;55.00;;;;;;5087736;28;20442;-42
2022/03/05 00:20:34;;;;;;;22.40;21.30;;;16.80;55.00;;;;;;5091980;28;20952;-42
2022/03/05 00:23:00;;;;;;;22.43;21.43;;;16.80;55.00;;;;;;5092107;28;20446;-43
2022/03/05 00:25:27;;;;;;;22.43;21.37;;;16.80;55.20;;;;;;5092190;28;20450;-43
2022/03/05 00:27:55;;;;;;;23.10;21.93;;;16.80;55.30;;;;;;5077366;28;20545;-42
2022/03/05 00:30:22;;;;;;;22.70;21.60;;;16.80;55.30;;;;;;5071898;28;20451;-43
2022/03/05 00:32:50;;;;;;;22.77;21.67;;;16.70;55.30;;;;;;5071749;28;20506;-45
2022/03/05 00:35:18;;;;;;;22.80;21.60;;;16.70;55.30;;;;;;5071721;28;20468;-44
2022/03/05 00:37:45;;;;;;;22.77;21.67;;;16.70;55.40;;;;;;5084082;28;20455;-46
2022/03/05 00:40:13;;;;;;;22.63;21.53;;;16.70;55.50;;;;;;5091881;28;20549;-43
2022/03/05 00:42:40;;;;;;;22.63;21.63;;;16.70;55.50;;;;;;5091837;28;20447;-44
2022/03/05 00:45:07;;;;;;;22.50;21.50;;;16.70;55.60;;;;;;5091732;28;20994;-46
2022/03/05 00:47:34;;;;;;;22.90;21.80;;;16.60;55.60;;;;;;5080732;28;20948;-44
2022/03/05 00:50:01;;;;;;;22.80;21.70;;;16.60;55.60;;;;;;5071320;28;20450;-49
2022/03/05 00:52:29;;;;;;;21.87;20.87;;;16.60;55.70;;;;;;5071563;28;20487;-46
2022/03/05 00:54:56;;;;;;;23.10;22.00;;;16.60;55.80;;;;;;5071531;28;20486;-45
2022/03/05 00:57:22;;;;;;;22.47;21.37;;;16.50;55.80;;;;;;5080463;28;20816;-43
2022/03/05 00:59:49;;;;;;;23.53;22.33;;;16.50;55.80;;;;;;5091673;28;20454;-42
2022/03/05 01:02:16;;;;;;;22.47;21.37;;;16.50;56.00;;;;;;5091682;28;20435;-43
2022/03/05 01:04:43;;;;;;;22.07;21.07;;;16.50;56.10;;;;;;5076391;22;20494;-46
2022/03/05 01:07:10;;;;;;;22.80;21.70;;;16.50;56.20;;;;;;5030631;28;20447;-43
2022/03/05 01:09:38;;;;;;;22.27;21.27;;;16.50;56.30;;;;;;5051238;28;20447;-44
2022/03/05 01:12:05;;;;;;;22.47;21.43;;;16.50;56.40;;;;;;5053959;28;21016;-43
2022/03/05 01:14:32;;;;;;;23.70;22.50;;;16.50;56.50;;;;;;5055420;28;21000;-43
2022/03/05 01:16:59;;;;;;;23.10;21.90;;;16.50;56.70;;;;;;5036019;28;20453;-43
2022/03/05 01:19:25;;;;;;;23.13;22.03;;;16.40;56.70;;;;;;5035368;28;20444;-43
2022/03/05 01:21:52;;;;;;;22.57;21.50;;;16.40;56.80;;;;;;5035329;28;20441;-43
2022/03/05 01:24:19;;;;;;;22.70;21.60;;;16.40;56.70;;;;;;5035270;28;21014;-43
2022/03/05 01:26:47;;;;;;;22.73;21.63;;;16.40;56.80;;;;;;5052246;28;20448;-43
2022/03/05 01:29:14;;;;;;;22.47;21.47;;;16.40;56.80;;;;;;5054977;28;20444;-43
2022/03/05 01:31:41;;;;;;;23.03;21.83;;;16.30;56.90;;;;;;5054983;28;20515;-48
2022/03/05 01:34:07;;;;;;;22.97;21.87;;;16.30;57.00;;;;;;5053220;28;20973;-45
2022/03/05 01:36:34;;;;;;;22.77;21.57;;;16.30;57.00;;;;;;5055213;28;20452;-45
2022/03/05 01:39:01;;;;;;;23.40;22.40;;;16.30;57.00;;;;;;5054711;28;20448;-42
2022/03/05 01:41:29;;;;;;;22.73;21.63;;;16.30;57.00;;;;;;5055027;28;20440;-44
2022/03/05 01:43:57;;;;;;;23.77;22.57;;;16.20;57.10;;;;;;5047515;28;21072;-43
2022/03/05 01:46:32;;;;;;;23.07;21.97;;;16.20;57.20;;;;;;5034919;28;20445;-45
2022/03/05 01:48:59;;;;;;;23.40;22.20;;;16.20;57.30;;;;;;5034672;28;20480;-44
2022/03/05 01:51:25;;;;;;;23.40;22.30;;;16.20;57.30;;;;;;5034795;28;20484;-47
2022/03/05 01:53:52;;;;;;;23.30;22.10;;;16.20;57.90;;;;;;5040870;28;20475;-45
2022/03/05 01:56:19;;;;;;;23.00;21.70;;;16.20;57.40;;;;;;5054667;28;20452;-45
2022/03/05 01:58:47;;;;;;;23.50;22.30;;;16.10;57.40;;;;;;5054426;28;20444;-45
2022/03/05 02:01:15;;;;;;;23.40;22.20;;;16.20;57.50;;;;;;5054514;28;20451;-44
2022/03/05 02:03:43;;;;;;;23.30;22.10;;;16.10;57.40;;;;;;5054059;28;20829;-44
2022/03/05 02:06:10;;;;;;;24.07;22.80;;;16.10;57.40;;;;;;5054532;28;20526;-43
2022/03/05 02:08:37;;;;;;;23.30;22.20;;;16.10;57.60;;;;;;5054207;28;20999;-46
2022/03/05 02:11:03;;;;;;;23.00;21.80;;;16.10;57.60;;;;;;5054391;28;20456;-43
2022/03/05 02:13:30;;;;;;;24.37;23.07;;;16.10;57.70;;;;;;5051188;28;20473;-43
2022/03/05 02:15:57;;;;;;;23.30;22.10;;;16.00;57.70;;;;;;5034226;28;20544;-45
2022/03/05 02:18:25;;;;;;;22.53;21.53;;;16.00;57.90;;;;;;5035241;28;20951;-43
2022/03/05 02:20:54;;;;;;;23.20;22.10;;;16.00;58.00;;;;;;5034156;28;20456;-45
2022/03/05 02:23:21;;;;;;;23.50;22.40;;;16.00;58.10;;;;;;5034332;28;20456;-44
2022/03/05 02:25:53;;;;;;;23.47;22.37;;;16.00;58.20;;;;;;5054130;28;20445;-43
2022/03/05 02:28:20;;;;;;;24.20;22.90;;;16.00;58.30;;;;;;5053912;28;20794;-44
2022/03/05 02:30:47;;;;;;;24.17;22.97;;;15.90;58.30;;;;;;5054131;28;20468;-46
2022/03/05 02:33:14;;;;;;;24.10;22.90;;;15.90;58.40;;;;;;5053286;28;20491;-45
2022/03/05 02:35:43;;;;;;;22.57;21.37;;;15.90;58.40;;;;;;5034044;28;20455;-43
2022/03/05 02:38:12;;;;;;;23.57;22.37;;;15.90;58.40;;;;;;5033828;28;20476;-44
2022/03/05 02:40:38;;;;;;;23.50;22.23;;;15.90;58.50;;;;;;5033915;28;20503;-43
2022/03/05 02:43:06;;;;;;;24.50;23.10;;;15.90;58.50;;;;;;5033898;28;20446;-44
2022/03/05 02:45:32;;;;;;;23.43;22.27;;;15.90;58.50;;;;;;5052830;28;20445;-43
2022/03/05 02:48:01;;;;;;;23.93;22.60;;;15.90;58.60;;;;;;5053515;28;20452;-43
2022/03/05 02:50:28;;;;;;;23.40;22.17;;;15.90;58.70;;;;;;5053509;28;20937;-45
2022/03/05 02:52:54;;;;;;;23.00;21.90;;;15.80;58.70;;;;;;5053767;28;20476;-43
2022/03/05 02:55:23;;;;;;;23.37;22.27;;;15.80;58.80;;;;;;5036106;28;20825;-43
2022/03/05 02:57:50;;;;;;;23.47;22.30;;;15.90;59.00;;;;;;5033804;28;20712;-43
2022/03/05 03:00:17;;;;;;;25.17;23.50;;;15.80;59.00;;;;;;5033500;28;20449;-44
2022/03/05 03:02:45;;;;;;;23.53;22.33;;;15.80;59.10;;;;;;5033684;28;20442;-43
2022/03/05 03:05:12;;;;;;;23.63;22.43;;;15.80;59.10;;;;;;5048856;28;20486;-43
2022/03/05 03:07:38;;;;;;;23.13;21.93;;;15.80;59.70;;;;;;5053339;28;20445;-43
2022/03/05 03:10:06;;;;;;;23.10;22.00;;;15.70;59.20;;;;;;5053157;28;20952;-43
2022/03/05 03:12:34;;;;;;;23.53;22.33;;;15.70;59.30;;;;;;5053224;28;20484;-43
2022/03/05 03:15:01;;;;;;;23.27;22.07;;;15.70;59.40;;;;;;5039033;28;20553;-43
2022/03/05 03:17:28;;;;;;;24.70;23.40;;;15.70;59.50;;;;;;5033169;28;20445;-43
2022/03/05 03:19:54;;;;;;;24.27;23.07;;;15.70;59.50;;;;;;5033062;28;20814;-44
2022/03/05 03:22:21;;;;;;;23.60;22.30;;;15.70;59.40;;;;;;5038430;28;20441;-43
2022/03/05 03:24:48;;;;;;;23.57;22.23;;;15.70;59.40;;;;;;5053190;28;20467;-43
2022/03/05 03:27:15;;;;;;;23.80;22.60;;;15.70;59.40;;;;;;5052855;28;20448;-44
2022/03/05 03:29:43;;;;;;;24.23;22.93;;;15.70;59.60;;;;;;5052715;28;20444;-43
2022/03/05 03:32:09;;;;;;;24.17;22.87;;;15.70;59.70;;;;;;5048803;28;20485;-43
2022/03/05 03:34:36;;;;;;;23.87;22.67;;;15.60;59.70;;;;;;5032842;28;20981;-43
2022/03/05 03:37:03;;;;;;;23.60;22.40;;;15.70;59.90;;;;;;5032877;28;20452;-43
2022/03/05 03:39:30;;;;;;;23.37;22.27;;;15.70;59.90;;;;;;5032617;28;20449;-43
2022/03/05 03:41:57;;;;;;;23.53;22.43;;;15.60;59.90;;;;;;5048173;28;20448;-43
2022/03/05 03:44:24;;;;;;;22.60;21.50;;;15.60;59.90;;;;;;5052515;28;20461;-43
2022/03/05 03:46:53;;;;;;;23.40;22.20;;;15.60;60.00;;;;;;5052560;28;20467;-44
2022/03/05 03:49:20;;;;;;;24.10;22.80;;;15.60;60.10;;;;;;5052382;28;20452;-43
2022/03/05 03:51:46;;;;;;;23.50;22.30;;;15.60;60.20;;;;;;5038167;28;20454;-43
2022/03/05 03:54:13;;;;;;;24.93;23.63;;;15.60;60.30;;;;;;5032377;28;20473;-45
2022/03/05 03:56:40;;;;;;;24.40;23.03;;;15.50;60.20;;;;;;5032516;28;20437;-44
2022/03/05 03:59:07;;;;;;;22.60;21.50;;;15.60;60.50;;;;;;5032297;28;20448;-43
2022/03/05 04:01:34;;;;;;;24.87;23.47;;;15.50;60.70;;;;;;5044077;28;20822;-44
2022/03/05 04:04:02;;;;;;;23.73;22.53;;;15.50;60.90;;;;;;5052314;28;20468;-43
2022/03/05 04:08:41;;;;;;;23.83;22.53;;;15.60;61.10;;;;;;5052221;28;20447;-43
2022/03/05 04:09:14;;;;;;;23.70;22.50;;;15.60;61.00;;;;;;5052173;28;20961;-43
2022/03/05 04:11:41;;;;;;;25.00;23.70;;;15.50;61.20;;;;;;5036550;28;20523;-43
2022/03/05 04:14:08;;;;;;;24.53;23.30;;;15.50;61.50;;;;;;5032256;28;20229;-44
2022/03/05 04:16:35;;;;;;;24.47;22.87;;;15.50;62.20;;;;;;5032076;28;20930;-44
2022/03/05 04:19:03;;;;;;;24.17;22.87;;;15.60;62.50;;;;;;5031943;28;20457;-44
2022/03/05 04:21:30;;;;;;;24.30;23.00;;;15.50;62.60;;;;;;5045401;28;20451;-44
2022/03/05 04:23:56;;;;;;;23.50;22.40;;;15.60;62.90;;;;;;5052083;28;20463;-43
2022/03/05 04:26:23;;;;;;;24.30;23.07;;;15.50;63.00;;;;;;5051793;28;20445;-43
2022/03/05 04:28:50;;;;;;;24.03;22.73;;;15.50;62.90;;;;;;5046369;28;21009;-44
2022/03/05 04:31:17;;;;;;;24.70;23.30;;;15.60;63.20;;;;;;5031877;28;20814;-43
2022/03/05 04:33:43;;;;;;;23.60;22.40;;;15.60;63.10;;;;;;5032071;28;20492;-43
2022/03/05 04:36:12;;;;;;;24.30;23.00;;;15.50;63.00;;;;;;5031919;28;20445;-45
2022/03/05 04:38:38;;;;;;;23.83;22.63;;;15.50;63.20;;;;;;5034779;28;20514;-44
2022/03/05 04:41:05;;;;;;;23.17;22.03;;;15.50;63.30;;;;;;5051628;28;20444;-43
2022/03/05 04:43:32;;;;;;;23.97;22.70;;;15.50;63.40;;;;;;5051396;28;21019;-43
2022/03/05 04:45:59;;;;;;;24.93;23.50;;;15.50;63.40;;;;;;5051149;28;20447;-44
2022/03/05 04:48:26;;;;;;;25.00;23.60;;;15.50;63.40;;;;;;5049748;28;20444;-43
2022/03/05 04:50:52;;;;;;;23.77;22.57;;;15.50;63.50;;;;;;5031737;28;20957;-43
2022/03/05 04:53:21;;;;;;;24.20;22.90;;;15.50;63.90;;;;;;5031455;28;20481;-42
2022/03/05 04:55:48;;;;;;;23.27;21.97;;;15.50;63.90;;;;;;5031723;28;20837;-44
2022/03/05 04:58:15;;;;;;;23.97;22.60;;;15.50;63.90;;;;;;5031472;28;20464;-48
2022/03/05 05:00:41;;;;;;;23.87;22.47;;;15.50;64.00;;;;;;5031545;28;20445;-43
2022/03/05 05:03:08;;;;;;;24.33;22.93;;;15.50;64.00;;;;;;5031616;28;20449;-43
2022/03/05 05:05:35;;;;;;;23.40;22.20;;;15.50;64.00;;;;;;5031679;28;20441;-43
2022/03/05 05:08:02;;;;;;;24.50;23.00;;;15.50;64.10;;;;;;5031533;28;20444;-43
2022/03/05 05:10:30;;;;;;;23.33;22.23;;;15.50;64.30;;;;;;5049181;28;20447;-43
2022/03/05 05:12:57;;;;;;;24.93;23.53;;;15.40;64.30;;;;;;5051333;28;20537;-43
2022/03/05 05:15:24;;;;;;;23.80;22.60;;;15.40;64.30;;;;;;5051424;28;20464;-44
2022/03/05 05:17:51;;;;;;;23.60;22.40;;;15.40;64.40;;;;;;5051183;28;20452;-43
2022/03/05 05:20:18;;;;;;;24.33;22.93;;;15.40;64.50;;;;;;5034843;28;20449;-44
2022/03/05 05:22:45;;;;;;;25.30;23.60;;;15.40;64.60;;;;;;5031678;28;20449;-44
2022/03/05 05:25:11;;;;;;;23.60;22.40;;;15.40;64.50;;;;;;5031337;28;20830;-44
2022/03/05 05:27:40;;;;;;;24.33;22.70;;;15.40;64.50;;;;;;5031547;28;20778;-44
2022/03/05 05:30:08;;;;;;;24.37;23.07;;;15.40;64.50;;;;;;5045518;28;20455;-44
2022/03/05 05:32:35;;;;;;;25.07;23.57;;;15.40;64.50;;;;;;5051088;28;20476;-45
2022/03/05 05:35:02;;;;;;;24.00;22.80;;;15.40;64.60;;;;;;5051066;28;20884;-44
2022/03/05 05:37:28;;;;;;;25.10;23.50;;;15.40;64.70;;;;;;5051314;28;20447;-44
2022/03/05 05:39:55;;;;;;;23.30;22.10;;;15.40;64.70;;;;;;5037894;28;20450;-43
2022/03/05 05:42:22;;;;;;;23.80;22.50;;;15.50;65.50;;;;;;5031115;28;20445;-44
2022/03/05 05:44:50;;;;;;;24.03;22.67;;;15.50;66.20;;;;;;5031205;28;20468;-43
2022/03/05 05:47:17;;;;;;;24.60;23.20;;;15.90;67.90;;;;;;5035785;28;20441;-42
2022/03/05 05:49:44;;;;;;;24.20;22.90;;;16.20;66.20;;;;;;5051136;28;20457;-43
2022/03/05 05:52:11;;;;;;;26.37;25.17;;;16.50;64.70;;;;;;5050997;28;20937;-44
2022/03/05 05:54:44;;;;;;;31.03;29.63;;;16.80;63.40;;;;;;5051063;28;20817;-46
2022/03/05 05:57:18;;;;;;;34.30;32.50;;;16.90;62.50;;;;;;5047277;28;20449;-43
2022/03/05 05:59:49;;;;;;;32.13;30.50;;;17.20;62.00;;;;;;5034408;28;20843;-42
2022/03/05 06:02:23;;;;;;;31.90;30.40;;;17.40;60.60;;;;;;5034792;28;20951;-43
2022/03/05 06:04:55;;;;;;;35.00;33.40;;;17.50;59.20;;;;;;5034587;28;20539;-43
2022/03/05 06:07:30;;;;;;;34.37;32.77;;;17.70;58.40;;;;;;5039801;28;20452;-47
2022/03/05 06:10:03;;;;;;;36.43;34.50;;;17.70;58.70;;;;;;5054204;28;20448;-42
2022/03/05 06:12:34;;;;;;;37.17;35.30;;;17.90;58.60;;;;;;5054385;28;20852;-42
2022/03/05 06:15:10;;;;;;;37.03;35.20;;;18.00;59.00;;;;;;5054171;28;20465;-42
2022/03/05 06:17:56;;;;;;;36.90;34.90;;;18.00;58.60;;;;;;5043281;28;20472;-43
2022/03/05 06:20:33;;;;;;;31.73;30.03;;;18.10;58.60;;;;;;5034340;28;20441;-43
2022/03/05 06:23:07;;;;;;;31.70;29.87;;;18.10;58.80;;;;;;5034460;28;20536;-43
2022/03/05 06:25:38;;;;;;;31.83;30.33;;;18.20;59.10;;;;;;5034151;28;20441;-43
2022/03/05 06:28:11;;;;;;;31.93;30.00;;;18.20;59.00;;;;;;5046568;28;20448;-42
2022/03/05 06:30:44;;;;;;;36.43;34.50;;;18.30;58.70;;;;;;5054027;28;20946;-42
2022/03/05 06:33:21;;;;;;;36.33;34.27;;;18.30;58.30;;;;;;5053830;28;20488;-43
2022/03/05 06:35:52;;;;;;;40.80;38.90;;;18.30;58.00;;;;;;5046391;28;20446;-42
2022/03/05 06:38:26;;;;;;;37.90;35.87;;;18.30;57.60;;;;;;5033928;28;20452;-41
2022/03/05 06:41:01;;;;;;;34.07;32.27;;;18.40;57.40;;;;;;5033847;28;20528;-43
2022/03/05 06:43:34;;;;;;;32.27;30.47;;;18.40;57.20;;;;;;5034121;28;20468;-42
2022/03/05 06:46:07;;;;;;;30.97;29.47;;;18.40;56.80;;;;;;5041822;28;20498;-42
2022/03/05 06:48:46;;;;;;;35.90;33.97;;;18.40;56.40;;;;;;5053379;28;20441;-42
2022/03/05 06:51:19;;;;;;;39.10;37.13;;;18.40;56.30;;;;;;5053714;28;20451;-42
2022/03/05 06:53:53;;;;;;;39.20;37.23;;;18.40;56.70;;;;;;5053249;28;20499;-42
2022/03/05 06:56:23;;;;;;;37.23;35.30;;;18.40;56.90;;;;;;5043014;28;20453;-43
2022/03/05 06:58:57;;;;;;;32.60;31.00;;;18.40;57.00;;;;;;5032566;28;20814;-43
2022/03/05 07:01:37;;;;;;;32.30;30.60;;;18.50;57.20;;;;;;5032895;28;20532;-42
2022/03/05 07:04:17;;;;;;;39.63;37.43;;;18.50;57.10;;;;;;5033993;28;20234;-42
2022/03/05 07:06:45;;;;;;;37.60;35.60;;;18.60;56.90;;;;;;5046364;28;20448;-41
2022/03/05 07:09:13;;;;;;;31.90;30.00;;;18.50;57.00;;;;;;5051999;28;20449;-44
2022/03/05 07:11:43;;;;;;;31.83;30.20;;;18.50;57.30;;;;;;5052386;28;20444;-46
2022/03/05 07:14:10;;;;;;;35.80;33.97;;;18.60;57.60;;;;;;5053049;28;20232;-41
2022/03/05 07:16:37;;;;;;;32.63;30.73;;;18.60;57.10;;;;;;5042290;28;20552;-42
2022/03/05 07:19:06;;;;;;;32.57;30.90;;;18.60;56.90;;;;;;5040742;28;20934;-41
2022/03/05 07:21:34;;;;;;;30.90;29.40;;;18.60;56.90;;;;;;5053182;28;20871;-41
2022/03/05 07:24:02;;;;;;;32.43;30.73;;;18.60;57.60;;;;;;5052837;28;20460;-41
2022/03/05 07:26:29;;;;;;;29.90;28.40;;;18.50;57.30;;;;;;5042213;28;20549;-42
2022/03/05 07:28:56;;;;;;;31.33;29.73;;;18.50;57.30;;;;;;5032865;28;20441;-41
2022/03/05 07:31:22;;;;;;;32.63;30.63;;;18.40;58.00;;;;;;5032988;28;20445;-41
2022/03/05 07:33:49;;;;;;;37.33;34.93;;;18.40;60.00;;;;;;5032883;28;20491;-42
2022/03/05 07:36:17;;;;;;;33.00;31.10;;;18.40;63.00;;;;;;5041023;28;20453;-44
2022/03/05 07:38:44;;;;;;;34.07;31.73;;;18.40;66.40;;;;;;5052401;28;20452;-42
2022/03/05 07:41:11;;;;;;;34.50;31.40;;;18.40;71.40;;;;;;5051994;28;20452;-42
2022/03/05 07:43:38;;;;;;;34.93;32.27;;;18.40;79.00;;;;;;5052026;28;20468;-42
2022/03/05 07:46:05;;;;;;;40.80;38.30;;;18.40;87.60;;;;;;5032992;28;20453;-41
2022/03/05 07:48:32;;;;;;;40.23;37.90;;;18.40;92.00;;;;;;5032494;28;20449;-42
2022/03/05 07:51:00;;;;;;;35.23;32.60;;;18.40;91.70;;;;;;5032673;28;20476;-42
2022/03/05 07:53:28;;;;;;;39.43;37.00;;;18.40;91.00;;;;;;5044514;28;20480;-42
2022/03/05 07:55:55;;;;;;;35.33;33.10;;;18.40;90.50;;;;;;5052391;28;20441;-42
2022/03/05 07:58:21;;;;;;;33.60;31.67;;;18.40;90.60;;;;;;5052230;28;20618;-42
2022/03/05 08:00:48;;;;;;;29.57;27.47;;;18.40;90.40;;;;;;5052267;28;20906;-42
2022/03/05 08:03:15;;;;;;;29.90;28.00;;;18.40;91.20;;;;;;5041199;28;20438;-42
2022/03/05 08:05:43;;;;;;;30.13;28.13;;;18.40;90.20;;;;;;5032763;28;20446;-44
2022/03/05 08:08:09;;;;;;;32.30;29.90;;;18.40;85.50;;;;;;5032164;28;20548;-42
2022/03/05 08:10:38;;;;;;;32.77;30.60;;;18.30;81.20;;;;;;5032122;28;20456;-42
2022/03/05 08:13:05;;;;;;;32.87;30.93;;;18.30;80.80;;;;;;5041080;28;20451;-42
2022/03/05 08:15:32;;;;;;;32.13;30.13;;;18.30;81.80;;;;;;5052040;28;20472;-42
2022/03/05 08:18:01;;;;;;;28.90;27.20;;;18.40;82.50;;;;;;5051763;28;20946;-43
2022/03/05 08:20:30;;;;;;;30.10;28.20;;;18.40;82.10;;;;;;5042338;28;20460;-43
2022/03/05 08:22:56;;;;;;;28.60;26.93;;;18.40;82.30;;;;;;5031945;28;20457;-44
2022/03/05 08:25:23;;;;;;;30.80;29.00;;;18.40;82.30;;;;;;5031983;28;20821;-45
2022/03/05 08:27:51;;;;;;;33.40;31.30;;;18.40;81.40;;;;;;5031953;28;20873;-44
2022/03/05 08:30:19;;;;;;;33.90;31.97;;;18.40;81.60;;;;;;5038910;28;21120;-44
2022/03/05 08:32:46;;;;;;;32.35;30.15;;;18.30;81.20;;;;;;5051442;28;20436;-41
2022/03/05 08:35:14;;;;;;;32.63;30.73;;;18.40;82.00;;;;;;5051580;28;20230;-44
2022/03/05 08:37:41;;;;;;;33.20;31.30;;;18.40;81.30;;;;;;5051541;28;20475;-43
2022/03/05 08:40:10;;;;;;;29.13;27.52;;;18.30;81.10;;;;;;5045194;28;20441;-44
2022/03/05 08:42:38;;;;;;;32.83;31.10;;;18.30;81.00;;;;;;5031849;28;20206;-44
2022/03/05 08:45:07;;;;;;;33.03;31.13;;;18.40;80.20;;;;;;5031743;28;20468;-43
2022/03/05 08:47:35;;;;;;;31.30;29.50;;;18.40;79.50;;;;;;5031788;28;20986;-43
2022/03/05 08:50:02;;;;;;;34.13;32.33;;;18.40;79.30;;;;;;5051609;28;20444;-42
2022/03/05 08:52:35;;;;;;;33.60;31.67;;;18.30;78.60;;;;;;5051438;28;20440;-45
2022/03/05 08:55:03;;;;;;;36.50;34.70;;;18.30;78.10;;;;;;5051335;28;20516;-46
2022/03/05 08:57:30;;;;;;;35.47;33.77;;;18.30;78.80;;;;;;5051495;28;20930;-45
2022/03/05 08:59:56;;;;;;;28.97;27.07;;;18.30;80.20;;;;;;5031461;28;20445;-43
2022/03/05 09:02:27;;;;;;;35.40;33.40;;;18.40;79.90;;;;;;5031730;28;20445;-43
2022/03/05 09:04:55;;;;;;;35.67;33.83;;;18.40;79.80;;;;;;5031342;28;20490;-44
2022/03/05 09:07:22;;;;;;;31.17;29.73;;;18.40;78.40;;;;;;5031436;28;20638;-45
2022/03/05 09:09:49;;;;;;;37.70;35.73;;;18.40;77.90;;;;;;5048102;28;20452;-43
2022/03/05 09:12:16;;;;;;;33.80;32.00;;;18.40;77.90;;;;;;5051230;28;20450;-44
2022/03/05 09:14:43;;;;;;;39.47;37.20;;;18.40;77.20;;;;;;5051179;28;20484;-44
2022/03/05 09:17:09;;;;;;;37.30;35.33;;;18.30;77.00;;;;;;5051656;28;20817;-43
2022/03/05 09:19:37;;;;;;;34.70;33.00;;;18.30;77.10;;;;;;5035658;28;20442;-43
2022/03/05 09:22:06;;;;;;;33.53;31.73;;;18.30;77.30;;;;;;5031406;28;20456;-43
2022/03/05 09:24:33;;;;;;;36.43;34.43;;;18.30;76.80;;;;;;5031519;28;20476;-43
2022/03/05 09:27:00;;;;;;;38.60;36.33;;;18.30;76.50;;;;;;5031329;28;20457;-42
2022/03/05 09:29:26;;;;;;;37.97;35.97;;;18.30;76.00;;;;;;5044421;28;20455;-45
2022/03/05 09:31:53;;;;;;;33.30;31.70;;;18.40;75.30;;;;;;5051905;28;20780;-43
2022/03/05 09:34:20;;;;;;;29.20;27.77;;;18.40;75.20;;;;;;5054806;28;20484;-41
2022/03/05 09:36:49;;;;;;;30.83;29.33;;;18.40;75.30;;;;;;5054704;28;20963;-42
2022/03/05 09:39:17;;;;;;;29.77;28.37;;;18.50;74.80;;;;;;5042609;28;20440;-42
2022/03/05 09:41:44;;;;;;;31.03;29.43;;;18.60;74.10;;;;;;5035031;28;20457;-42
2022/03/05 09:44:18;;;;;;;31.57;29.93;;;18.70;73.80;;;;;;5034864;28;20469;-42
2022/03/05 09:46:47;;;;;;;31.17;29.27;;;18.70;73.50;;;;;;5035097;28;20444;-42
2022/03/05 09:49:16;;;;;;;29.40;28.00;;;18.80;72.80;;;;;;5045722;28;20482;-41
2022/03/05 09:51:43;;;;;;;29.33;27.50;;;18.80;71.90;;;;;;5054753;28;20839;-42
2022/03/05 09:54:11;;;;;;;31.47;29.50;;;18.80;71.20;;;;;;5054693;28;20520;-42
2022/03/05 09:56:39;;;;;;;31.97;30.27;;;18.80;70.80;;;;;;5050938;28;20520;-42
2022/03/05 09:59:07;;;;;;;31.70;30.10;;;18.90;70.40;;;;;;5034471;28;20885;-41
2022/03/05 10:01:36;;;;;;;31.93;30.10;;;18.90;70.00;;;;;;5034633;28;20531;-41
2022/03/05 10:04:04;;;;;;;35.20;33.23;;;18.90;69.60;;;;;;5034440;28;20550;-42
2022/03/05 10:06:31;;;;;;;32.50;30.80;;;18.90;69.20;;;;;;5036527;28;20575;-41
2022/03/05 10:08:58;;;;;;;30.23;28.83;;;18.90;68.80;;;;;;5053815;28;20511;-41
2022/03/05 10:11:39;;;;;;;28.97;27.57;;;19.00;68.60;;;;;;5054395;28;20818;-41
2022/03/05 10:14:15;;;;;;;30.50;28.60;;;19.00;68.30;;;;;;5054379;28;20484;-43
2022/03/05 10:16:42;;;;;;;28.10;26.70;;;19.00;68.00;;;;;;5051490;28;20448;-43
2022/03/05 10:19:17;;;;;;;31.97;30.37;;;19.00;67.60;;;;;;5034095;28;20452;-42
2022/03/05 10:21:56;;;;;;;29.80;28.33;;;19.10;67.20;;;;;;5034267;28;20448;-42
2022/03/05 10:24:32;;;;;;;29.70;28.30;;;19.10;67.50;;;;;;5034387;28;20613;-41
2022/03/05 10:27:00;;;;;;;27.30;25.90;;;19.10;66.90;;;;;;5039076;28;20444;-41
2022/03/05 10:29:34;;;;;;;27.17;25.70;;;19.10;66.90;;;;;;5053848;28;20535;-41
2022/03/05 10:32:03;;;;;;;29.20;27.70;;;19.20;66.30;;;;;;5054003;28;20449;-41
2022/03/05 10:34:52;;;;;;;30.27;28.80;;;19.20;65.80;;;;;;5053689;28;20981;-45
2022/03/05 10:37:20;;;;;;;27.80;26.50;;;19.20;65.40;;;;;;5046278;28;20453;-41
2022/03/05 10:39:48;;;;;;;27.10;25.80;;;19.30;65.20;;;;;;5033784;28;20453;-40
2022/03/05 10:42:20;;;;;;;28.20;26.60;;;19.30;65.00;;;;;;5033975;28;20453;-41
2022/03/05 10:45:00;;;;;;;30.20;28.80;;;19.30;64.60;;;;;;5033011;28;20966;-41
2022/03/05 10:47:36;;;;;;;29.37;27.90;;;19.30;64.50;;;;;;5041386;28;20474;-41
2022/03/05 10:50:06;;;;;;;26.30;24.93;;;19.40;64.40;;;;;;5053323;28;20449;-42
2022/03/05 10:52:44;;;;;;;26.40;25.10;;;19.40;64.00;;;;;;5053718;28;20804;-41
2022/03/05 10:55:16;;;;;;;25.87;24.67;;;19.50;63.50;;;;;;5053577;28;21017;-42
2022/03/05 10:57:59;;;;;;;26.10;24.80;;;19.50;63.50;;;;;;5043794;28;20452;-42
2022/03/05 11:00:27;;;;;;;26.70;25.43;;;19.50;62.80;;;;;;5033569;28;20441;-41
2022/03/05 11:02:56;;;;;;;27.10;25.70;;;19.60;62.40;;;;;;5034095;28;20456;-41
2022/03/05 11:05:24;;;;;;;27.63;26.40;;;19.80;62.80;;;;;;5037428;28;20472;-44
2022/03/05 11:07:53;;;;;;;28.50;26.90;;;20.20;61.10;;;;;;5054084;28;20440;-44
2022/03/05 11:10:23;;;;;;;28.40;27.10;;;20.50;59.80;;;;;;5053906;28;20980;-42
2022/03/05 11:12:56;;;;;;;30.37;28.87;;;20.90;59.00;;;;;;5053296;28;20451;-42
2022/03/05 11:15:23;;;;;;;27.67;26.17;;;21.50;57.50;;;;;;5049303;28;21005;-41
2022/03/05 11:17:50;;;;;;;29.73;28.33;;;21.90;55.50;;;;;;5033024;28;20449;-42
2022/03/05 11:20:17;;;;;;;30.17;28.67;;;22.10;54.10;;;;;;5032955;28;20938;-42
2022/03/05 11:22:49;;;;;;;29.37;28.07;;;22.40;53.00;;;;;;5033068;28;20449;-44
2022/03/05 11:25:20;;;;;;;30.63;29.13;;;22.50;51.90;;;;;;5033998;28;20461;-44
2022/03/05 11:27:57;;;;;;;29.70;28.20;;;22.80;51.10;;;;;;5033178;28;20445;-47
2022/03/05 11:30:24;;;;;;;28.73;27.40;;;23.00;50.10;;;;;;5033463;28;20507;-42
2022/03/05 11:32:51;;;;;;;29.97;28.67;;;23.20;49.30;;;;;;5033699;28;20445;-42
2022/03/05 11:35:21;;;;;;;29.70;28.40;;;23.50;48.60;;;;;;5035111;28;20477;-42
2022/03/05 11:37:50;;;;;;;33.27;31.67;;;23.70;48.00;;;;;;5052803;28;20448;-41
2022/03/05 11:40:34;;;;;;;32.17;30.67;;;24.10;47.50;;;;;;5052279;28;20449;-43
2022/03/05 11:45:59;;;;;;;35.60;33.90;;;24.70;46.30;;;;;;5088928;27;20585;-42
2022/03/05 11:48:33;;;;;;;35.40;33.70;;;26.20;43.60;;;;;;5088904;28;20437;-43
2022/03/05 11:51:02;;;;;;;33.30;31.80;;;27.70;41.50;;;;;;5088963;28;20439;-42
2022/03/05 11:53:29;;;;;;;32.20;30.70;;;28.80;39.40;;;;;;5086485;28;20463;-42
2022/03/05 11:55:56;;;;;;;32.00;30.50;;;29.80;37.60;;;;;;5069244;28;20444;-46
2022/03/05 11:58:32;;;;;;;34.27;32.67;;;30.60;36.10;;;;;;5068697;28;20810;-47
2022/03/05 12:01:27;;;;;;;33.23;31.73;;;31.40;34.70;;;;;;5068755;28;20963;-44
2022/03/05 12:03:53;;;;;;;29.47;28.17;;;32.00;33.60;;;;;;5068258;28;20479;-44
2022/03/05 12:06:20;;;;;;;28.90;27.50;;;32.80;32.30;;;;;;5068695;28;20447;-44
2022/03/05 12:08:52;;;;;;;29.13;27.83;;;33.40;31.40;;;;;;5068422;28;20808;-46
2022/03/05 12:11:21;;;;;;;30.63;29.20;;;33.90;30.20;;;;;;5068348;28;20447;-47
2022/03/05 12:13:52;;;;;;;30.17;28.77;;;34.40;29.80;;;;;;5068511;28;20474;-48
2022/03/05 12:16:22;;;;;;;30.63;29.23;;;34.50;29.30;;;;;;5068515;28;20443;-50
2022/03/05 12:18:49;;;;;;;29.90;28.60;;;34.50;29.00;;;;;;5068238;28;20526;-47
2022/03/05 12:21:26;;;;;;;29.50;28.00;;;34.60;28.90;;;;;;5068360;28;20211;-50
2022/03/05 12:23:58;;;;;;;31.60;30.17;;;34.60;28.60;;;;;;5067905;28;20217;-46
2022/03/05 12:26:34;;;;;;;32.47;30.80;;;34.70;28.50;;;;;;5068308;28;20205;-52
2022/03/05 12:29:03;;;;;;;31.80;30.30;;;35.20;28.30;;;;;;5067999;28;20450;-43
2022/03/05 12:31:31;;;;;;;35.65;33.95;;;35.60;28.00;;;;;;5068211;28;20204;-46
2022/03/05 12:33:58;;;;;;;35.03;33.50;;;35.40;27.60;;;;;;5067692;28;20217;-44
2022/03/05 12:36:24;;;;;;;30.97;29.53;;;35.00;27.50;;;;;;5067999;28;20197;-50
2022/03/05 12:38:55;;;;;;;29.23;27.93;;;34.80;27.60;;;;;;5068351;28;20447;-48